Time;durP1;ratioP1;P1;durP2;ratioP2;P2;SDS_P1;SDS_P2;PMS_P1;PMS_P2;Temp;Humidity;BMP_temperature;BMP_pressure;BME280_temperature;BME280_humidity;BME280_pressure;Samples;Min_cycle;Max_cycle;Signal;HPM_P1;HPM_P2
2024/01/29 00:01:45;;;;;;;93.53;53.55;;;16.10;61.50;;;;;;5028995;27;89076;-80
2024/01/29 00:04:11;;;;;;;92.07;53.55;;;16.10;61.40;;;;;;5012369;27;91113;-79
2024/01/29 00:06:36;;;;;;;92.18;53.45;;;16.10;61.50;;;;;;5018627;27;90471;-84
2024/01/29 00:09:02;;;;;;;92.18;53.50;;;16.00;61.40;;;;;;5017761;27;90237;-77
2024/01/29 00:11:28;;;;;;;91.93;53.10;;;16.00;61.40;;;;;;5014869;27;90542;-79
2024/01/29 00:13:53;;;;;;;92.05;53.00;;;16.00;61.50;;;;;;5015705;27;89804;-80
2024/01/29 00:16:19;;;;;;;92.30;53.50;;;16.00;61.50;;;;;;5019645;27;89773;-80
2024/01/29 00:18:45;;;;;;;91.57;53.38;;;15.90;61.40;;;;;;5016055;27;95080;-79
2024/01/29 00:21:12;;;;;;;91.70;53.28;;;15.90;61.40;;;;;;5026367;27;89377;-79
2024/01/29 00:23:38;;;;;;;91.55;52.83;;;15.90;61.40;;;;;;5019228;27;90158;-78
2024/01/29 00:26:04;;;;;;;91.88;53.40;;;15.90;61.50;;;;;;5020814;27;89781;-78
2024/01/29 00:28:29;;;;;;;91.95;53.10;;;15.90;61.40;;;;;;5018922;27;91406;-83
2024/01/29 00:30:55;;;;;;;91.97;53.33;;;15.80;61.30;;;;;;5020452;27;89468;-77
2024/01/29 00:33:21;;;;;;;92.18;53.45;;;15.80;61.40;;;;;;5020950;27;90257;-77
2024/01/29 00:35:46;;;;;;;93.50;53.47;;;15.80;61.30;;;;;;5018850;27;91348;-79
2024/01/29 00:38:12;;;;;;;91.18;52.95;;;15.80;61.40;;;;;;5019733;27;91348;-78
2024/01/29 00:40:37;;;;;;;91.68;53.35;;;15.80;61.40;;;;;;5005283;28;89979;-84
2024/01/29 00:43:03;;;;;;;91.97;53.38;;;15.80;61.40;;;;;;5024794;27;90246;-84
2024/01/29 00:45:29;;;;;;;91.07;52.92;;;15.70;61.30;;;;;;5021769;27;89341;-84
2024/01/29 00:47:55;;;;;;;91.60;53.22;;;15.70;61.30;;;;;;5029240;27;88965;-84
2024/01/29 00:50:21;;;;;;;91.70;53.60;;;15.70;61.30;;;;;;5026331;27;89812;-85
2024/01/29 00:52:46;;;;;;;93.20;53.15;;;15.70;61.20;;;;;;5024599;27;92632;-85
2024/01/29 00:55:13;;;;;;;92.35;53.65;;;15.70;61.20;;;;;;5031875;27;89752;-86
2024/01/29 00:57:38;;;;;;;92.00;53.25;;;15.60;61.30;;;;;;5032104;27;89363;-85
2024/01/29 01:00:06;;;;;;;91.70;53.35;;;15.60;61.40;;;;;;5030750;27;89286;-85
2024/01/29 01:02:33;;;;;;;91.15;52.95;;;15.60;61.20;;;;;;5032800;27;90318;-85
2024/01/29 01:04:58;;;;;;;91.70;53.03;;;15.60;61.30;;;;;;5020793;27;92942;-85
2024/01/29 01:07:24;;;;;;;92.30;53.28;;;15.60;61.20;;;;;;5043656;27;89225;-85
2024/01/29 01:09:50;;;;;;;92.60;53.42;;;15.50;61.10;;;;;;5044572;27;88802;-85
2024/01/29 01:12:15;;;;;;;91.15;52.95;;;15.50;61.20;;;;;;5040306;27;91162;-85
2024/01/29 01:14:41;;;;;;;91.10;53.05;;;15.50;61.30;;;;;;5019802;27;92013;-85
2024/01/29 01:17:07;;;;;;;91.40;53.03;;;15.50;61.30;;;;;;5036508;27;89702;-85
2024/01/29 01:19:32;;;;;;;90.47;53.30;;;15.50;61.30;;;;;;5052490;22;88810;-42
2024/01/29 01:21:58;;;;;;;90.20;52.00;;;15.40;61.20;;;;;;5004669;27;90206;-41
2024/01/29 01:24:24;;;;;;;91.10;52.55;;;15.40;61.20;;;;;;5023732;22;89814;-71
2024/01/29 01:26:49;;;;;;;90.18;52.17;;;15.40;61.20;;;;;;4989480;27;89633;-70
2024/01/29 01:29:15;;;;;;;90.88;52.70;;;15.40;61.10;;;;;;5015017;27;89421;-70
2024/01/29 01:31:40;;;;;;;91.47;52.63;;;15.40;61.10;;;;;;5009676;27;89695;-70
2024/01/29 01:34:06;;;;;;;91.28;52.80;;;15.40;61.10;;;;;;5010023;27;88591;-69
2024/01/29 01:36:32;;;;;;;90.88;51.85;;;15.40;61.20;;;;;;4991301;27;90641;-70
2024/01/29 01:38:57;;;;;;;90.90;52.53;;;15.40;61.10;;;;;;5002385;27;89821;-71
2024/01/29 01:41:23;;;;;;;91.03;52.63;;;15.40;61.20;;;;;;4989356;28;89905;-70
2024/01/29 01:43:49;;;;;;;90.00;51.97;;;15.30;61.10;;;;;;4996440;28;90180;-69
2024/01/29 01:46:24;;;;;;;89.88;52.33;;;15.40;61.20;;;;;;4989169;28;89482;-70
2024/01/29 01:48:51;;;;;;;89.47;51.70;;;15.30;61.20;;;;;;4978100;28;89431;-69
2024/01/29 01:51:21;;;;;;;90.13;52.35;;;15.30;61.10;;;;;;4997613;28;89921;-71
2024/01/29 01:53:51;;;;;;;90.53;52.15;;;15.30;61.10;;;;;;4992448;28;89261;-70
2024/01/29 01:56:17;;;;;;;90.55;52.45;;;15.30;61.20;;;;;;4970012;28;89209;-70
2024/01/29 01:58:44;;;;;;;91.22;52.30;;;15.20;61.10;;;;;;4976333;28;88447;-70
2024/01/29 02:01:09;;;;;;;90.03;52.28;;;15.20;61.10;;;;;;4990415;28;90508;-70
2024/01/29 02:03:35;;;;;;;90.20;52.50;;;15.30;61.20;;;;;;4987932;28;90150;-70
2024/01/29 02:06:01;;;;;;;91.00;53.53;;;15.20;61.20;;;;;;5011348;22;90101;-77
2024/01/29 02:08:27;;;;;;;91.72;52.95;;;15.20;61.20;;;;;;5021717;27;89723;-85
2024/01/29 02:10:54;;;;;;;90.07;52.35;;;15.20;61.20;;;;;;5044723;22;89802;-40
2024/01/29 02:13:20;;;;;;;90.13;52.10;;;15.20;61.20;;;;;;5008288;27;89888;-43
2024/01/29 02:15:45;;;;;;;90.65;52.20;;;15.20;61.30;;;;;;5006872;27;89953;-42
2024/01/29 02:18:11;;;;;;;90.05;51.95;;;15.20;61.30;;;;;;5007066;27;90346;-40
2024/01/29 02:20:37;;;;;;;90.40;52.58;;;15.20;61.30;;;;;;5009795;27;93365;-40
2024/01/29 02:23:03;;;;;;;90.00;52.17;;;15.20;61.20;;;;;;5004180;27;89764;-40
2024/01/29 02:25:30;;;;;;;90.43;52.55;;;15.20;61.30;;;;;;5007904;27;89394;-41
2024/01/29 02:27:56;;;;;;;90.50;52.05;;;15.10;61.30;;;;;;5007157;27;90230;-41
2024/01/29 02:30:21;;;;;;;89.53;51.78;;;15.10;61.20;;;;;;5006365;27;91156;-42
2024/01/29 02:32:47;;;;;;;89.07;51.75;;;15.10;61.20;;;;;;5008853;27;90643;-40
2024/01/29 02:35:13;;;;;;;90.38;52.25;;;15.10;61.40;;;;;;5006416;27;90328;-40
2024/01/29 02:37:38;;;;;;;89.72;52.13;;;15.10;61.40;;;;;;5010268;27;90989;-41
2024/01/29 02:40:05;;;;;;;89.93;52.05;;;15.10;62.10;;;;;;5010144;27;90287;-40
2024/01/29 02:42:30;;;;;;;90.32;52.05;;;15.10;62.10;;;;;;5010795;27;89661;-43
2024/01/29 02:44:56;;;;;;;90.20;52.17;;;15.10;61.30;;;;;;5000439;27;89828;-42
2024/01/29 02:47:22;;;;;;;89.70;52.03;;;15.00;61.30;;;;;;5008562;27;89711;-41
2024/01/29 02:49:47;;;;;;;90.60;52.28;;;15.10;61.40;;;;;;5001858;27;90037;-40
2024/01/29 02:52:13;;;;;;;89.80;52.28;;;15.00;61.20;;;;;;5007924;27;89255;-40
2024/01/29 02:54:39;;;;;;;88.95;51.88;;;15.00;61.40;;;;;;5008865;27;90399;-40
2024/01/29 02:57:05;;;;;;;90.85;52.10;;;15.00;61.40;;;;;;5003059;27;90562;-41
2024/01/29 02:59:32;;;;;;;90.65;51.95;;;15.00;61.30;;;;;;5007277;27;90293;-44
2024/01/29 03:01:58;;;;;;;89.28;51.97;;;15.00;61.30;;;;;;4989357;27;89995;-41
2024/01/29 03:04:24;;;;;;;88.68;51.65;;;15.00;61.30;;;;;;5010806;27;90274;-40
2024/01/29 03:06:50;;;;;;;88.90;52.03;;;15.00;61.50;;;;;;5007612;27;90631;-41
2024/01/29 03:09:15;;;;;;;90.72;52.10;;;14.90;61.30;;;;;;4991473;28;89759;-43
2024/01/29 03:11:41;;;;;;;90.40;51.75;;;14.90;61.30;;;;;;4993669;28;89501;-41
2024/01/29 03:14:08;;;;;;;89.68;51.92;;;15.00;61.30;;;;;;4987689;28;89760;-42
2024/01/29 03:16:34;;;;;;;89.50;51.83;;;14.90;61.30;;;;;;4992239;28;89311;-41
2024/01/29 03:18:59;;;;;;;89.97;51.83;;;14.90;61.30;;;;;;4988397;28;91426;-42
2024/01/29 03:21:27;;;;;;;89.57;51.83;;;14.90;61.30;;;;;;4993073;28;89586;-41
2024/01/29 03:23:53;;;;;;;89.95;51.97;;;14.90;61.30;;;;;;4995889;28;89423;-41
2024/01/29 03:26:19;;;;;;;89.50;51.95;;;14.90;61.30;;;;;;4991030;28;91113;-42
2024/01/29 03:28:45;;;;;;;87.75;51.17;;;14.90;61.30;;;;;;4993871;28;89943;-45
2024/01/29 03:31:10;;;;;;;89.38;52.22;;;14.80;61.40;;;;;;4983664;28;90796;-43
2024/01/29 03:33:36;;;;;;;88.68;51.50;;;14.80;61.40;;;;;;4992503;28;91198;-45
2024/01/29 03:36:05;;;;;;;89.65;51.80;;;14.80;61.30;;;;;;4989153;28;88620;-44
2024/01/29 03:38:32;;;;;;;89.30;52.03;;;14.80;61.30;;;;;;4994653;28;90469;-45
2024/01/29 03:40:58;;;;;;;89.85;52.33;;;14.80;61.40;;;;;;4992074;28;93048;-43
2024/01/29 03:43:24;;;;;;;89.50;51.65;;;14.80;61.50;;;;;;4983552;28;91220;-45
2024/01/29 03:45:50;;;;;;;88.57;51.65;;;14.80;61.50;;;;;;4987583;28;89745;-41
2024/01/29 03:48:16;;;;;;;90.28;52.13;;;14.80;61.60;;;;;;4996321;22;90624;-70
2024/01/29 03:50:41;;;;;;;89.93;52.15;;;14.80;61.60;;;;;;4991524;28;89181;-70
2024/01/29 03:53:07;;;;;;;89.55;52.10;;;14.80;61.70;;;;;;4991851;28;90373;-70
2024/01/29 03:55:33;;;;;;;89.68;51.95;;;14.70;61.70;;;;;;4973977;28;90603;-69
2024/01/29 03:57:58;;;;;;;90.28;52.20;;;14.70;61.80;;;;;;4986582;28;90133;-71
2024/01/29 04:00:26;;;;;;;88.90;51.88;;;14.70;61.70;;;;;;4996241;28;89450;-70
2024/01/29 04:02:52;;;;;;;91.60;52.33;;;14.70;61.60;;;;;;4988759;28;89668;-69
2024/01/29 04:05:18;;;;;;;89.60;52.25;;;14.70;61.60;;;;;;4994927;28;91636;-70
2024/01/29 04:07:44;;;;;;;88.55;51.67;;;14.60;61.70;;;;;;4967665;28;90384;-71
2024/01/29 04:10:10;;;;;;;89.82;51.60;;;14.70;61.80;;;;;;4966271;28;89458;-70
2024/01/29 04:12:35;;;;;;;88.82;51.80;;;14.70;61.80;;;;;;4970997;28;89830;-70
2024/01/29 04:15:01;;;;;;;90.60;51.97;;;14.70;61.80;;;;;;4969564;28;89182;-71
2024/01/29 04:17:26;;;;;;;88.38;51.78;;;14.70;61.70;;;;;;4967790;28;92227;-70
2024/01/29 04:19:52;;;;;;;89.10;51.88;;;14.70;61.70;;;;;;4966197;28;89872;-71
2024/01/29 04:22:18;;;;;;;89.28;52.13;;;14.70;61.80;;;;;;4965496;28;89226;-70
2024/01/29 04:24:43;;;;;;;90.40;52.13;;;14.70;61.80;;;;;;4972001;28;89363;-71
2024/01/29 04:27:09;;;;;;;88.53;51.88;;;14.60;61.70;;;;;;4973096;28;89214;-70
2024/01/29 04:29:34;;;;;;;89.45;51.92;;;14.70;61.70;;;;;;4969656;28;89738;-70
2024/01/29 04:32:00;;;;;;;89.57;51.92;;;14.60;61.80;;;;;;4970256;28;91045;-70
2024/01/29 04:34:26;;;;;;;89.43;51.97;;;14.60;61.70;;;;;;4973978;28;89817;-70
2024/01/29 04:36:52;;;;;;;88.85;51.58;;;14.60;61.80;;;;;;4972043;28;89622;-69
2024/01/29 04:39:17;;;;;;;89.60;51.90;;;14.60;61.80;;;;;;4970003;28;90261;-70
2024/01/29 04:41:43;;;;;;;88.50;51.72;;;14.60;61.80;;;;;;4968136;28;89318;-70
2024/01/29 04:44:09;;;;;;;88.75;51.58;;;14.60;61.80;;;;;;4969473;28;88829;-70
2024/01/29 04:46:36;;;;;;;88.55;51.78;;;14.60;61.80;;;;;;4966811;28;93653;-69
2024/01/29 04:49:01;;;;;;;88.32;52.05;;;14.60;61.80;;;;;;4970743;28;91429;-71
2024/01/29 04:51:28;;;;;;;90.07;51.70;;;14.60;61.80;;;;;;4964125;28;89709;-72
2024/01/29 04:53:53;;;;;;;88.88;51.85;;;14.60;61.90;;;;;;4969081;28;89497;-70
2024/01/29 04:56:19;;;;;;;89.07;52.00;;;14.60;61.80;;;;;;4966190;28;91450;-71
2024/01/29 04:58:45;;;;;;;89.00;52.08;;;14.60;61.80;;;;;;4967098;28;92179;-70
2024/01/29 05:01:10;;;;;;;88.22;51.90;;;14.60;61.80;;;;;;4964876;28;90340;-71
2024/01/29 05:03:37;;;;;;;88.72;51.78;;;14.50;61.60;;;;;;4974432;28;89151;-71
2024/01/29 05:06:02;;;;;;;90.75;52.03;;;14.50;61.80;;;;;;4964125;28;90860;-70
2024/01/29 05:08:28;;;;;;;88.68;51.97;;;14.50;61.90;;;;;;4967064;28;90343;-70
2024/01/29 05:10:54;;;;;;;88.40;51.95;;;14.50;61.90;;;;;;4969139;28;91040;-71
2024/01/29 05:13:19;;;;;;;88.05;51.80;;;14.50;61.90;;;;;;4966190;28;90131;-70
2024/01/29 05:15:45;;;;;;;88.18;51.67;;;14.50;61.90;;;;;;4965532;28;92570;-69
2024/01/29 05:18:11;;;;;;;88.82;51.60;;;14.50;62.00;;;;;;4973011;28;91830;-69
2024/01/29 05:20:37;;;;;;;88.72;51.95;;;14.50;62.00;;;;;;4968251;28;90436;-70
2024/01/29 05:23:03;;;;;;;88.55;51.65;;;14.50;62.10;;;;;;4969412;28;89421;-69
2024/01/29 05:25:28;;;;;;;89.15;52.03;;;14.50;62.10;;;;;;4975651;28;89709;-68
2024/01/29 05:27:54;;;;;;;89.00;51.70;;;14.50;62.10;;;;;;4972942;28;91479;-70
2024/01/29 05:30:20;;;;;;;91.75;51.90;;;14.40;62.10;;;;;;4972431;28;90616;-70
2024/01/29 05:32:45;;;;;;;88.70;52.00;;;14.50;62.10;;;;;;4973416;28;89475;-70
2024/01/29 05:35:11;;;;;;;89.90;51.55;;;14.40;62.10;;;;;;4975061;28;90362;-70
2024/01/29 05:37:37;;;;;;;88.28;51.92;;;14.40;62.00;;;;;;4976521;28;89659;-70
2024/01/29 05:40:04;;;;;;;88.13;51.42;;;14.40;62.00;;;;;;4972654;28;90104;-70
2024/01/29 05:42:30;;;;;;;88.75;51.85;;;14.40;62.00;;;;;;4977522;28;89793;-69
2024/01/29 05:44:56;;;;;;;90.43;52.03;;;14.40;61.90;;;;;;4971279;28;91068;-70
2024/01/29 05:47:23;;;;;;;88.97;51.80;;;14.40;61.90;;;;;;4973041;28;90817;-69
2024/01/29 05:49:48;;;;;;;90.68;51.67;;;14.40;61.90;;;;;;4976632;28;89343;-68
2024/01/29 05:52:14;;;;;;;89.90;52.20;;;14.40;61.90;;;;;;4966032;28;91508;-68
2024/01/29 05:54:40;;;;;;;90.07;51.92;;;14.40;61.90;;;;;;4974814;28;89481;-69
2024/01/29 05:57:09;;;;;;;89.43;51.40;;;14.40;62.00;;;;;;4971364;28;90786;-69
2024/01/29 05:59:35;;;;;;;88.15;51.72;;;14.40;62.00;;;;;;4973070;28;89666;-70
2024/01/29 06:02:01;;;;;;;87.72;51.75;;;14.30;61.90;;;;;;4974912;28;88791;-70
2024/01/29 06:04:26;;;;;;;88.03;51.40;;;14.40;61.90;;;;;;4968817;28;89871;-72
2024/01/29 06:06:52;;;;;;;88.55;51.90;;;14.30;61.90;;;;;;4970552;28;91025;-71
2024/01/29 06:09:19;;;;;;;88.80;51.67;;;14.30;62.00;;;;;;4976459;28;90647;-71
2024/01/29 06:11:45;;;;;;;88.22;51.80;;;14.30;62.00;;;;;;4969207;28;90487;-73
2024/01/29 06:14:10;;;;;;;89.40;51.90;;;14.30;62.10;;;;;;4967647;28;89932;-71
2024/01/29 06:16:36;;;;;;;90.55;51.85;;;14.40;62.20;;;;;;4963613;28;89712;-71
2024/01/29 06:19:02;;;;;;;89.30;52.15;;;14.30;62.20;;;;;;4972990;28;92441;-69
2024/01/29 06:21:27;;;;;;;88.60;51.72;;;14.30;62.30;;;;;;4973793;28;90550;-69
2024/01/29 06:23:53;;;;;;;89.85;52.08;;;14.30;62.60;;;;;;4968414;28;90150;-70
2024/01/29 06:26:18;;;;;;;88.43;51.83;;;14.30;62.70;;;;;;4972666;28;88567;-70
2024/01/29 06:28:44;;;;;;;90.03;51.72;;;14.30;62.90;;;;;;4968169;28;89227;-69
2024/01/29 06:31:10;;;;;;;91.75;51.72;;;14.30;63.00;;;;;;4968398;28;89329;-69
2024/01/29 06:33:38;;;;;;;89.75;51.97;;;14.30;63.00;;;;;;4967987;28;92436;-69
2024/01/29 06:36:04;;;;;;;88.75;51.90;;;14.30;63.10;;;;;;4966203;28;91017;-67
2024/01/29 06:38:30;;;;;;;90.30;51.95;;;14.30;63.00;;;;;;4964548;28;94485;-70
2024/01/29 06:40:57;;;;;;;88.72;51.78;;;14.30;62.90;;;;;;4967221;28;90660;-68
2024/01/29 06:43:22;;;;;;;90.63;51.88;;;14.30;63.00;;;;;;4962461;28;90294;-70
2024/01/29 06:45:48;;;;;;;90.60;52.47;;;14.30;62.90;;;;;;4967399;28;93755;-71
2024/01/29 06:48:14;;;;;;;90.70;52.58;;;14.30;63.00;;;;;;4975296;28;89333;-71
2024/01/29 06:50:40;;;;;;;91.40;52.58;;;14.30;62.90;;;;;;4974963;28;89027;-72
2024/01/29 06:53:06;;;;;;;91.60;52.33;;;14.30;62.80;;;;;;4972300;28;89613;-72
2024/01/29 06:55:31;;;;;;;89.75;52.22;;;14.30;63.00;;;;;;4972142;28;89411;-70
2024/01/29 06:57:57;;;;;;;92.03;52.22;;;14.30;62.80;;;;;;4974709;28;90785;-71
2024/01/29 07:00:23;;;;;;;94.32;52.17;;;14.30;62.80;;;;;;4969877;28;89420;-70
2024/01/29 07:02:48;;;;;;;89.82;51.92;;;14.30;62.70;;;;;;4996052;22;89606;-40
2024/01/29 07:05:15;;;;;;;91.32;52.15;;;14.30;62.60;;;;;;4995377;28;89696;-41
2024/01/29 07:07:41;;;;;;;91.78;52.28;;;14.20;62.60;;;;;;4994868;28;89451;-44
2024/01/29 07:10:07;;;;;;;89.28;51.72;;;14.20;62.60;;;;;;4993452;28;90201;-40
2024/01/29 07:12:33;;;;;;;89.72;52.72;;;14.20;62.60;;;;;;5007862;22;89525;-76
2024/01/29 07:14:58;;;;;;;89.05;52.80;;;14.20;62.70;;;;;;5001963;28;90766;-78
2024/01/29 07:17:24;;;;;;;92.25;52.53;;;14.20;62.70;;;;;;5001751;28;89762;-78
2024/01/29 07:19:52;;;;;;;90.10;53.00;;;14.30;62.60;;;;;;4979998;28;89731;-78
2024/01/29 07:22:21;;;;;;;89.35;52.75;;;14.20;62.60;;;;;;4997772;28;90809;-77
2024/01/29 07:24:48;;;;;;;90.13;52.92;;;14.20;62.60;;;;;;4980900;28;93701;-78
2024/01/29 07:27:17;;;;;;;90.68;52.97;;;14.20;62.60;;;;;;4983077;28;88996;-78
2024/01/29 07:29:44;;;;;;;90.75;52.85;;;14.20;62.70;;;;;;4975932;28;89902;-78
2024/01/29 07:32:10;;;;;;;89.47;52.72;;;14.20;62.60;;;;;;4989139;28;89884;-78
2024/01/29 07:34:36;;;;;;;89.28;52.60;;;14.20;62.60;;;;;;4968509;28;93301;-78
2024/01/29 07:37:02;;;;;;;88.85;52.72;;;14.20;62.60;;;;;;4967564;28;88943;-78
2024/01/29 07:39:28;;;;;;;88.88;52.55;;;14.20;62.50;;;;;;4966597;28;88574;-80
2024/01/29 07:41:54;;;;;;;88.43;52.33;;;14.20;62.50;;;;;;4983190;28;89627;-79
2024/01/29 07:44:20;;;;;;;88.82;52.72;;;14.20;62.60;;;;;;4981726;28;89870;-80
2024/01/29 07:46:45;;;;;;;89.20;52.70;;;14.20;62.50;;;;;;4986938;28;90583;-78
2024/01/29 07:49:12;;;;;;;88.95;52.75;;;14.20;62.50;;;;;;4984107;28;89331;-78
2024/01/29 07:51:42;;;;;;;89.18;52.60;;;14.20;62.50;;;;;;4983575;28;90888;-79
2024/01/29 07:54:08;;;;;;;90.07;52.73;;;14.20;62.50;;;;;;4982169;28;89882;-80
2024/01/29 07:56:34;;;;;;;88.70;52.60;;;14.20;62.50;;;;;;4983283;28;88920;-78
2024/01/29 07:58:59;;;;;;;89.40;52.60;;;14.20;62.40;;;;;;4988959;28;89733;-79
2024/01/29 08:01:25;;;;;;;88.00;52.35;;;14.10;62.40;;;;;;4977499;28;89847;-78
2024/01/29 08:03:50;;;;;;;89.60;52.67;;;14.20;62.50;;;;;;4984163;28;89470;-78
2024/01/29 08:06:16;;;;;;;89.25;52.47;;;14.20;62.40;;;;;;4984455;28;89888;-79
2024/01/29 08:08:42;;;;;;;90.70;52.35;;;14.10;62.40;;;;;;4978128;28;89051;-79
2024/01/29 08:11:08;;;;;;;89.25;52.28;;;14.20;62.50;;;;;;4982740;28;91130;-78
2024/01/29 08:13:34;;;;;;;91.28;51.92;;;14.10;62.40;;;;;;4986487;28;90970;-78
2024/01/29 08:16:00;;;;;;;89.82;52.53;;;14.20;62.40;;;;;;4962100;28;90863;-78
2024/01/29 08:18:26;;;;;;;88.75;52.60;;;14.20;62.40;;;;;;4982096;28;89583;-79
2024/01/29 08:20:52;;;;;;;89.72;52.45;;;14.20;62.40;;;;;;4977286;28;90194;-79
2024/01/29 08:23:17;;;;;;;88.55;52.53;;;14.10;62.30;;;;;;4980470;28;89414;-78
2024/01/29 08:25:43;;;;;;;88.32;52.45;;;14.10;62.40;;;;;;4977891;28;89424;-79
2024/01/29 08:28:09;;;;;;;88.72;52.42;;;14.20;62.30;;;;;;4982567;28;89205;-75
2024/01/29 08:30:34;;;;;;;87.63;52.25;;;14.20;62.20;;;;;;4980974;28;91753;-77
2024/01/29 08:33:00;;;;;;;88.32;52.55;;;14.20;62.20;;;;;;4979681;28;90197;-75
2024/01/29 08:35:26;;;;;;;88.28;52.30;;;14.20;62.20;;;;;;4977469;28;90387;-75
2024/01/29 08:37:51;;;;;;;89.55;52.63;;;14.20;62.20;;;;;;4984644;28;92398;-75
2024/01/29 08:40:17;;;;;;;88.68;52.38;;;14.20;62.00;;;;;;4982871;28;90602;-77
2024/01/29 08:42:43;;;;;;;89.47;52.47;;;14.20;62.00;;;;;;4982004;28;89896;-75
2024/01/29 08:45:08;;;;;;;88.20;52.42;;;14.20;62.00;;;;;;4987606;28;89423;-75
2024/01/29 08:47:34;;;;;;;88.38;52.28;;;14.20;62.10;;;;;;4984065;28;89499;-77
2024/01/29 08:50:00;;;;;;;88.68;52.33;;;14.20;62.00;;;;;;4966702;28;92534;-76
2024/01/29 08:52:25;;;;;;;88.25;52.55;;;14.20;62.00;;;;;;4983424;28;89459;-76
2024/01/29 08:54:51;;;;;;;89.55;52.53;;;14.20;62.00;;;;;;4980391;28;89832;-77
2024/01/29 08:57:17;;;;;;;90.50;52.58;;;14.20;62.00;;;;;;4977474;28;90028;-75
2024/01/29 08:59:43;;;;;;;88.57;52.15;;;14.20;61.90;;;;;;4978241;28;91981;-75
2024/01/29 09:02:08;;;;;;;88.47;52.47;;;14.30;61.90;;;;;;4983362;28;90525;-76
2024/01/29 09:04:34;;;;;;;89.57;52.90;;;14.30;61.80;;;;;;4983663;28;89715;-78
2024/01/29 09:07:00;;;;;;;90.57;52.58;;;14.20;62.60;;;;;;4979474;28;89664;-76
2024/01/29 09:09:25;;;;;;;90.03;52.60;;;14.20;61.90;;;;;;4979499;28;90049;-76
2024/01/29 09:11:51;;;;;;;88.63;52.35;;;14.20;61.80;;;;;;4959630;28;92388;-76
2024/01/29 09:14:19;;;;;;;88.18;51.97;;;14.30;61.80;;;;;;4984422;28;89505;-77
2024/01/29 09:16:45;;;;;;;88.35;52.40;;;14.30;61.90;;;;;;4983267;28;89072;-77
2024/01/29 09:19:11;;;;;;;89.03;53.05;;;14.20;61.80;;;;;;4982713;28;89654;-75
2024/01/29 09:21:37;;;;;;;90.60;52.67;;;14.20;61.80;;;;;;4979653;28;89492;-77
2024/01/29 09:24:04;;;;;;;89.70;52.65;;;14.20;61.80;;;;;;4979001;28;90921;-78
2024/01/29 09:26:30;;;;;;;97.85;52.75;;;14.20;61.70;;;;;;4979464;28;90077;-76
2024/01/29 09:28:55;;;;;;;87.90;52.35;;;14.30;61.90;;;;;;4964357;28;93100;-75
2024/01/29 09:31:21;;;;;;;88.13;52.17;;;14.30;61.70;;;;;;4963905;28;92641;-76
2024/01/29 09:33:47;;;;;;;89.65;52.53;;;14.30;61.80;;;;;;4980927;28;89772;-76
2024/01/29 09:36:13;;;;;;;89.40;52.15;;;14.30;61.80;;;;;;4960718;28;90976;-76
2024/01/29 09:38:39;;;;;;;88.97;52.53;;;14.30;62.10;;;;;;4988123;28;89987;-80
2024/01/29 09:41:05;;;;;;;88.80;52.88;;;14.30;61.60;;;;;;4980723;28;89513;-79
2024/01/29 09:43:34;;;;;;;89.38;52.88;;;14.30;61.60;;;;;;4980248;28;89409;-77
2024/01/29 09:46:03;;;;;;;89.05;53.00;;;14.30;61.60;;;;;;4968943;28;89207;-77
2024/01/29 09:48:30;;;;;;;89.15;52.22;;;14.30;61.60;;;;;;4981609;28;90817;-78
2024/01/29 09:50:58;;;;;;;88.25;52.28;;;14.30;61.70;;;;;;4987235;28;90049;-78
2024/01/29 09:53:25;;;;;;;88.00;52.25;;;14.40;61.80;;;;;;4985347;28;89795;-76
2024/01/29 09:55:51;;;;;;;90.50;52.58;;;14.40;61.60;;;;;;4967006;28;88854;-78
2024/01/29 09:58:17;;;;;;;88.72;52.38;;;14.40;61.60;;;;;;4968531;28;92365;-78
2024/01/29 10:00:43;;;;;;;91.32;53.13;;;14.40;61.60;;;;;;4979441;28;90274;-77
2024/01/29 10:03:17;;;;;;;88.50;52.63;;;14.40;61.50;;;;;;4981240;28;89414;-77
2024/01/29 10:05:43;;;;;;;89.50;52.22;;;14.40;61.50;;;;;;4979658;28;88739;-78
2024/01/29 10:08:11;;;;;;;90.05;52.67;;;14.40;61.50;;;;;;4981813;28;92209;-76
2024/01/29 10:10:37;;;;;;;89.18;52.50;;;14.50;61.50;;;;;;4980412;28;90176;-76
2024/01/29 10:13:09;;;;;;;90.95;52.97;;;14.50;61.60;;;;;;4978416;28;90797;-77
2024/01/29 10:15:35;;;;;;;88.88;52.53;;;14.50;61.40;;;;;;4988548;28;89388;-77
2024/01/29 10:18:01;;;;;;;89.28;52.50;;;14.60;61.40;;;;;;4984607;28;89648;-78
2024/01/29 10:20:28;;;;;;;89.05;52.60;;;14.60;61.30;;;;;;4979194;28;89611;-78
2024/01/29 10:23:00;;;;;;;89.65;52.38;;;14.70;61.30;;;;;;4984950;28;90239;-77
2024/01/29 10:25:27;;;;;;;90.53;53.03;;;14.60;61.20;;;;;;4978073;28;89185;-78
2024/01/29 10:27:53;;;;;;;88.90;52.60;;;14.70;61.20;;;;;;4981169;28;90166;-78
2024/01/29 10:30:18;;;;;;;90.03;52.63;;;14.70;61.20;;;;;;4980074;28;91185;-77
2024/01/29 10:32:44;;;;;;;89.95;52.55;;;14.70;61.10;;;;;;4983450;28;89237;-77
2024/01/29 10:35:10;;;;;;;90.03;52.83;;;14.80;61.00;;;;;;4980943;28;89412;-78
2024/01/29 10:37:35;;;;;;;91.15;53.15;;;14.80;61.00;;;;;;4984598;28;90923;-77
2024/01/29 10:40:04;;;;;;;90.72;52.72;;;14.80;60.90;;;;;;4981108;28;90580;-77
2024/01/29 10:42:30;;;;;;;91.90;52.80;;;14.90;60.90;;;;;;4982497;28;89007;-77
2024/01/29 10:44:59;;;;;;;90.32;53.17;;;14.90;60.60;;;;;;4956738;28;89579;-76
2024/01/29 10:47:30;;;;;;;91.18;53.13;;;14.90;60.70;;;;;;4978015;28;89726;-78
2024/01/29 10:49:56;;;;;;;90.20;53.08;;;15.00;60.40;;;;;;4981401;28;91441;-83
2024/01/29 10:52:23;;;;;;;90.30;52.85;;;15.10;60.40;;;;;;4987949;28;88692;-82
2024/01/29 10:54:50;;;;;;;90.95;52.88;;;15.00;60.30;;;;;;4985538;28;89033;-84
2024/01/29 10:57:18;;;;;;;90.88;53.17;;;15.10;60.40;;;;;;4980315;28;92798;-77
2024/01/29 10:59:45;;;;;;;91.95;53.25;;;15.10;60.40;;;;;;4980675;28;90849;-82
2024/01/29 11:02:16;;;;;;;91.75;53.15;;;15.10;60.50;;;;;;4978647;28;90563;-84
2024/01/29 11:04:42;;;;;;;90.22;53.10;;;15.10;60.50;;;;;;4985780;28;88794;-82
2024/01/29 11:07:15;;;;;;;90.22;52.72;;;15.20;60.60;;;;;;4977857;28;91996;-81
2024/01/29 11:10:01;;;;;;;91.50;52.80;;;15.20;60.60;;;;;;4984136;28;90259;-82
2024/01/29 11:12:28;;;;;;;92.00;53.22;;;15.30;60.60;;;;;;4984145;28;89703;-82
2024/01/29 11:15:02;;;;;;;91.78;53.30;;;15.30;60.50;;;;;;4984145;28;90249;-82
2024/01/29 11:17:28;;;;;;;95.90;52.85;;;15.30;60.70;;;;;;4984596;28;90210;-80
2024/01/29 11:19:58;;;;;;;95.75;53.05;;;15.30;60.90;;;;;;4963060;28;92391;-83
2024/01/29 11:22:34;;;;;;;95.15;52.90;;;15.40;60.90;;;;;;4983927;28;89553;-82
2024/01/29 11:25:05;;;;;;;90.93;52.83;;;15.40;60.80;;;;;;4978847;28;89039;-82
2024/01/29 11:27:31;;;;;;;91.57;52.60;;;15.40;60.90;;;;;;4979678;28;90535;-82
2024/01/29 11:29:57;;;;;;;95.10;53.05;;;15.40;60.80;;;;;;4969146;28;93451;-81
2024/01/29 11:32:22;;;;;;;91.55;52.83;;;15.40;60.90;;;;;;4964967;28;89053;-81
2024/01/29 11:34:48;;;;;;;92.35;53.22;;;15.40;60.80;;;;;;4979358;28;89275;-82
2024/01/29 11:37:24;;;;;;;91.57;53.08;;;15.40;60.90;;;;;;4980253;28;89453;-82
2024/01/29 11:39:50;;;;;;;91.72;52.90;;;15.50;60.90;;;;;;4983893;28;90317;-82
2024/01/29 11:42:16;;;;;;;94.55;52.88;;;15.60;60.80;;;;;;4981527;28;89323;-82
2024/01/29 11:44:42;;;;;;;93.35;53.05;;;15.50;60.80;;;;;;4984038;28;88423;-81
2024/01/29 11:47:09;;;;;;;93.63;52.88;;;15.50;60.70;;;;;;4984504;28;89603;-81
2024/01/29 11:49:34;;;;;;;95.85;53.35;;;15.50;61.50;;;;;;4986011;28;91635;-80
2024/01/29 11:52:00;;;;;;;92.10;53.00;;;15.60;60.80;;;;;;4985183;28;90975;-82
2024/01/29 11:54:26;;;;;;;92.10;53.10;;;15.60;60.70;;;;;;4987464;28;89061;-82
2024/01/29 11:56:51;;;;;;;94.03;53.10;;;15.60;60.70;;;;;;4980303;28;91149;-82
2024/01/29 11:59:17;;;;;;;91.93;53.30;;;15.60;60.80;;;;;;4982444;28;90021;-81
2024/01/29 12:01:43;;;;;;;89.97;52.72;;;15.60;60.80;;;;;;4968896;28;89885;-82
2024/01/29 12:04:11;;;;;;;92.22;53.25;;;15.60;60.80;;;;;;4983549;28;89499;-81
2024/01/29 12:06:37;;;;;;;91.63;52.95;;;15.60;60.90;;;;;;4982441;28;89349;-81
2024/01/29 12:09:09;;;;;;;92.68;52.83;;;15.60;60.80;;;;;;4978483;28;88781;-81
2024/01/29 12:11:35;;;;;;;91.22;52.83;;;15.60;60.80;;;;;;4984741;28;89082;-81
2024/01/29 12:14:00;;;;;;;92.63;53.22;;;15.60;60.80;;;;;;4988124;28;88802;-82
2024/01/29 12:16:28;;;;;;;91.53;53.20;;;15.70;60.90;;;;;;4981970;28;91866;-82
2024/01/29 12:18:55;;;;;;;91.15;53.05;;;15.70;60.80;;;;;;4985303;28;90640;-82
2024/01/29 12:21:21;;;;;;;92.28;53.28;;;15.60;60.80;;;;;;4983936;28;90511;-83
2024/01/29 12:23:47;;;;;;;90.93;53.03;;;15.70;60.90;;;;;;4984340;28;89120;-80